Terminal Aerodrome Forecast
Issued by NWS Portland, ME

Home | Current Version | Previous Version | Text Only | Print | Product List | Glossary On
Versions: 1 2 3 4 5 6 7 8 9 10 11 12 13 14 15 16 17 18 19
000
FTUS41 KGYX 282320
TAFCON
TAF
KCON 282320Z 2900/2924 32005KT P6SM SCT080 BKN250
      TEMPO 2900/2902 BKN080
     FM290200 00000KT P6SM SCT080 SCT250
     FM290800 05005KT P6SM SCT008 OVC015
     FM291600 08006KT P6SM BKN015 OVC030=

USA.gov is the U.S. government's official web portal to all federal, state and local government web resources and services.